createdAt,value
2023-01-08T00:01:21.157Z,98411.78
2023-01-08T00:03:50.994Z,98415.44
2023-01-08T00:06:21.945Z,98399.50
2023-01-08T00:08:49.292Z,98393.38
2023-01-08T00:11:17.631Z,98396.03
2023-01-08T00:13:45.038Z,98403.19
2023-01-08T00:16:16.502Z,98403.19
2023-01-08T00:18:45.298Z,98407.28
2023-01-08T00:21:13.363Z,98406.47
2023-01-08T00:23:40.777Z,98405.44
2023-01-08T00:26:10.873Z,98396.66
2023-01-08T00:28:39.045Z,98398.28
2023-01-08T00:31:09.377Z,98392.97
2023-01-08T00:33:37.736Z,98392.16
2023-01-08T00:36:14.965Z,98375.38
2023-01-08T00:38:43.119Z,98370.88
2023-01-08T00:41:13.268Z,98376.19
2023-01-08T00:43:40.996Z,98370.88
2023-01-08T00:46:09.090Z,98370.88
2023-01-08T00:48:38.714Z,98371.69
2023-01-08T00:51:08.561Z,98368.22
2023-01-08T00:53:37.871Z,98378.03
2023-01-08T00:56:10.113Z,98378.84
2023-01-08T00:58:37.669Z,98377.00
2023-01-08T01:01:13.746Z,98382.31
2023-01-08T01:03:42.009Z,98386.00
2023-01-08T01:06:11.809Z,98387.88
2023-01-08T01:08:39.235Z,98380.69
2023-01-08T01:11:08.899Z,98374.56
2023-01-08T01:13:36.223Z,98378.84
2023-01-08T01:16:04.553Z,98368.22
2023-01-08T01:18:32.001Z,98369.25
2023-01-08T01:20:59.654Z,98356.94
2023-01-08T01:23:26.999Z,98354.28
2023-01-08T01:25:54.659Z,98348.97
2023-01-08T01:28:21.970Z,98356.94
2023-01-08T01:30:56.958Z,98348.97
2023-01-08T01:33:24.380Z,98352.66
2023-01-08T01:36:02.622Z,98344.69
2023-01-08T01:38:30.608Z,98349.16
2023-01-08T01:40:58.746Z,98346.50
2023-01-08T01:43:37.922Z,98337.72
2023-01-08T01:46:19.116Z,98332.41
2023-01-08T01:48:49.850Z,98338.75
2023-01-08T01:51:19.108Z,98327.25
2023-01-08T01:53:47.168Z,98341.41
2023-01-08T01:56:15.746Z,98338.75
2023-01-08T01:58:42.985Z,98331.75
2023-01-08T02:01:10.927Z,98329.91
2023-01-08T02:03:40.244Z,98319.28
2023-01-08T02:06:26.935Z,98313.16
2023-01-08T02:09:02.596Z,98307.84
2023-01-08T02:12:19.378Z,98309.69
2023-01-08T02:14:54.990Z,98314.19
2023-01-08T02:17:49.435Z,98315.19
2023-01-08T02:20:42.667Z,98305.19
2023-01-08T02:23:38.078Z,98299.22
2023-01-08T02:26:24.905Z,98297.59
2023-01-08T02:28:58.975Z,98299.22
2023-01-08T02:31:28.899Z,98308.22
2023-01-08T02:33:56.787Z,98304.75
2023-01-08T02:36:32.425Z,98311.72
2023-01-08T02:39:13.944Z,98311.91
2023-01-08T02:42:03.071Z,98306.56
2023-01-08T02:44:56.969Z,98306.56
2023-01-08T02:47:30.826Z,98304.94
2023-01-08T02:50:13.569Z,98304.94
2023-01-08T02:52:50.165Z,98311.25
2023-01-08T02:55:20.925Z,98307.41
2023-01-08T02:57:49.245Z,98303.28
2023-01-08T03:00:17.018Z,98306.78
2023-01-08T03:02:44.981Z,98299.81
2023-01-08T03:05:24.283Z,98305.94
2023-01-08T03:07:51.994Z,98296.34
2023-01-08T03:10:24.894Z,98302.47
2023-01-08T03:12:58.645Z,98293.69
2023-01-08T03:15:33.008Z,98289.38
2023-01-08T03:18:09.169Z,98289.38
2023-01-08T03:20:38.827Z,98287.75
2023-01-08T03:23:10.321Z,98288.56
2023-01-08T03:25:41.618Z,98281.59
2023-01-08T03:28:15.343Z,98280.78
2023-01-08T03:30:44.727Z,98288.78
2023-01-08T03:33:14.812Z,98280.78
2023-01-08T03:35:45.589Z,98283.47
2023-01-08T03:38:17.356Z,98276.47
2023-01-08T03:40:51.614Z,98279.13
2023-01-08T03:43:19.094Z,98283.66
2023-01-08T03:45:56.087Z,98277.50
2023-01-08T03:48:25.069Z,98277.50
2023-01-08T03:50:52.751Z,98275.84
2023-01-08T03:53:20.594Z,98269.72
2023-01-08T03:55:48.639Z,98271.56
2023-01-08T03:58:16.332Z,98274.22
2023-01-08T04:00:43.931Z,98268.91
2023-01-08T04:03:11.304Z,98260.09
2023-01-08T04:05:38.846Z,98261.94
2023-01-08T04:08:06.504Z,98261.94
2023-01-08T04:10:34.000Z,98261.13
2023-01-08T04:13:01.522Z,98265.63
2023-01-08T04:15:29.329Z,98260.09
2023-01-08T04:17:57.388Z,98244.34
2023-01-08T04:20:25.019Z,98263.16
2023-01-08T04:22:52.390Z,98269.28
2023-01-08T04:25:19.983Z,98259.69
2023-01-08T04:27:48.229Z,98265.00
2023-01-08T04:30:15.887Z,98260.69
2023-01-08T04:32:43.516Z,98260.69
2023-01-08T04:35:11.090Z,98253.56
2023-01-08T04:37:38.673Z,98260.69
2023-01-08T04:40:06.728Z,98248.41
2023-01-08T04:42:34.081Z,98256.41
2023-01-08T04:45:01.650Z,98251.06
2023-01-08T04:47:28.988Z,98252.06
2023-01-08T04:49:56.547Z,98246.75
2023-01-08T04:52:24.891Z,98246.75
2023-01-08T04:54:52.492Z,98239.81
2023-01-08T04:57:19.901Z,98227.53
2023-01-08T04:59:47.483Z,98218.75
2023-01-08T05:02:15.019Z,98223.06
2023-01-08T05:04:42.688Z,98222.22
2023-01-08T05:07:10.135Z,98237.16
2023-01-08T05:09:37.742Z,98238.16
2023-01-08T05:12:05.347Z,98239.19
2023-01-08T05:14:32.900Z,98236.53
2023-01-08T05:17:00.393Z,98248.16
2023-01-08T05:19:27.984Z,98234.06
2023-01-08T05:21:55.311Z,98240.19
2023-01-08T05:24:22.898Z,98234.06
2023-01-08T05:26:50.343Z,98240.19
2023-01-08T05:29:18.115Z,98240.19
2023-01-08T05:31:45.806Z,98231.63
2023-01-08T05:34:13.744Z,98220.16
2023-01-08T05:36:41.384Z,98239.59
2023-01-08T05:39:09.247Z,98237.94
2023-01-08T05:41:36.933Z,98230.78
2023-01-08T05:44:04.759Z,98222.00
2023-01-08T05:46:32.149Z,98216.69
2023-01-08T05:49:00.628Z,98219.53
2023-01-08T05:51:28.042Z,98221.38
2023-01-08T05:53:55.689Z,98223.03
2023-01-08T05:56:23.275Z,98209.72
2023-01-08T05:58:54.131Z,98205.41
2023-01-08T06:01:21.645Z,98203.78
2023-01-08T06:03:49.346Z,98203.78
2023-01-08T06:06:16.784Z,98205.59
2023-01-08T06:08:44.453Z,98210.72
2023-01-08T06:11:12.244Z,98210.91
2023-01-08T06:13:43.451Z,98207.44
2023-01-08T06:16:11.710Z,98203.97
2023-01-08T06:18:39.697Z,98213.78
2023-01-08T06:21:07.257Z,98211.94
2023-01-08T06:23:35.021Z,98206.63
2023-01-08T06:26:04.184Z,98200.50
2023-01-08T06:28:32.771Z,98201.50
2023-01-08T06:31:01.583Z,98203.34
2023-01-08T06:33:30.527Z,98202.53
2023-01-08T06:36:02.650Z,98199.06
2023-01-08T06:38:34.810Z,98205.19
2023-01-08T06:41:08.648Z,98198.22
2023-01-08T06:43:37.804Z,98191.91
2023-01-08T06:46:06.245Z,98189.44
2023-01-08T06:48:33.945Z,98192.09
2023-01-08T06:51:02.822Z,98193.94
2023-01-08T06:53:31.102Z,98205.38
2023-01-08T06:55:58.868Z,98205.78
2023-01-08T06:58:28.303Z,98199.63
2023-01-08T07:00:56.336Z,98196.34
2023-01-08T07:03:24.030Z,98186.56
2023-01-08T07:05:51.446Z,98198.00
2023-01-08T07:08:19.119Z,98187.38
2023-01-08T07:10:46.548Z,98191.03
2023-01-08T07:13:14.476Z,98189.00
2023-01-08T07:15:42.912Z,98196.16
2023-01-08T07:18:12.763Z,98190.03
2023-01-08T07:20:40.375Z,98187.38
2023-01-08T07:23:11.443Z,98190.03
2023-01-08T07:25:38.806Z,98189.22
2023-01-08T07:28:10.640Z,98194.53
2023-01-08T07:30:38.511Z,98187.38
2023-01-08T07:33:06.864Z,98182.06
2023-01-08T07:35:35.625Z,98177.75
2023-01-08T07:38:03.218Z,98175.09
2023-01-08T07:40:31.757Z,98177.56
2023-01-08T07:43:04.369Z,98175.09
2023-01-08T07:45:32.593Z,98171.63
2023-01-08T07:48:00.857Z,98163.66
2023-01-08T07:50:28.773Z,98160.81
2023-01-08T07:52:58.631Z,98153.81
2023-01-08T07:55:27.087Z,98144.84
2023-01-08T07:57:55.330Z,98146.47
2023-01-08T08:00:22.735Z,98139.53
2023-01-08T08:02:51.669Z,98145.47
2023-01-08T08:05:19.045Z,98143.81
2023-01-08T08:07:47.691Z,98137.50
2023-01-08T08:10:15.863Z,98136.47
2023-01-08T08:12:45.128Z,98130.16
2023-01-08T08:15:12.451Z,98128.13
2023-01-08T08:17:45.896Z,98129.75
2023-01-08T08:20:13.201Z,98133.03
2023-01-08T08:22:41.035Z,98137.13
2023-01-08T08:25:09.058Z,98127.34
2023-01-08T08:27:37.049Z,98120.19
2023-01-08T08:30:04.896Z,98121.63
2023-01-08T08:32:33.706Z,98117.94
2023-01-08T08:35:02.329Z,98127.56
2023-01-08T08:37:30.183Z,98117.75
2023-01-08T08:39:57.915Z,98121.84
2023-01-08T08:42:26.709Z,98115.53
2023-01-08T08:44:54.070Z,98121.47
2023-01-08T08:47:21.717Z,98121.25
2023-01-08T08:49:49.007Z,98123.09
2023-01-08T08:52:16.722Z,98122.09
2023-01-08T08:54:44.159Z,98124.53
2023-01-08T08:57:12.069Z,98117.38
2023-01-08T08:59:39.452Z,98113.88
2023-01-08T09:02:07.503Z,98116.34
2023-01-08T09:04:35.299Z,98116.34
2023-01-08T09:07:03.245Z,98118.00
2023-01-08T09:09:30.758Z,98109.19
2023-01-08T09:11:58.596Z,98102.88
2023-01-08T09:14:25.903Z,98097.56
2023-01-08T09:16:54.388Z,98097.38
2023-01-08T09:19:22.791Z,98091.00
2023-01-08T09:21:51.218Z,98080.38
2023-01-08T09:24:19.389Z,98081.19
2023-01-08T09:26:47.032Z,98078.34
2023-01-08T09:29:14.446Z,98077.13
2023-01-08T09:31:42.071Z,98076.31
2023-01-08T09:34:09.554Z,98071.00
2023-01-08T09:36:38.262Z,98061.16
2023-01-08T09:39:05.994Z,98056.66
2023-01-08T09:41:42.391Z,98053.63
2023-01-08T09:44:20.519Z,98048.91
2023-01-08T09:46:49.180Z,98041.56
2023-01-08T09:49:25.136Z,98029.88
2023-01-08T09:51:52.774Z,98029.88
2023-01-08T09:54:24.642Z,98026.84
2023-01-08T09:56:52.751Z,98017.84
2023-01-08T09:59:21.135Z,98015.78
2023-01-08T10:01:49.089Z,98011.09
2023-01-08T10:04:20.985Z,98015.38
2023-01-08T10:06:57.113Z,98010.06
2023-01-08T10:09:28.285Z,98002.91
2023-01-08T10:12:00.451Z,97996.56
2023-01-08T10:14:39.447Z,97990.03
2023-01-08T10:17:27.102Z,97986.72
2023-01-08T10:19:54.779Z,97990.03
2023-01-08T10:22:25.155Z,97984.72
2023-01-08T10:24:52.748Z,97973.69
2023-01-08T10:27:23.021Z,97967.53
2023-01-08T10:29:52.058Z,97967.75
2023-01-08T10:32:34.330Z,97963.06
2023-01-08T10:35:06.842Z,97965.72
2023-01-08T10:37:42.477Z,97961.81
2023-01-08T10:40:24.790Z,97956.31
2023-01-08T10:42:54.831Z,97953.66
2023-01-08T10:45:25.006Z,97951.56
2023-01-08T10:48:06.807Z,97951.38
2023-01-08T10:50:35.056Z,97954.84
2023-01-08T10:53:21.868Z,97946.88
2023-01-08T10:56:01.695Z,97945.84
2023-01-08T10:58:30.269Z,97952.78
2023-01-08T11:01:25.171Z,97950.75
2023-01-08T11:04:04.996Z,97945.44
2023-01-08T11:06:37.171Z,97950.75
2023-01-08T11:09:21.522Z,97952.41
2023-01-08T11:11:49.852Z,97945.44
2023-01-08T11:14:29.735Z,97941.97
2023-01-08T11:16:58.131Z,97941.16
2023-01-08T11:19:29.496Z,97927.66
2023-01-08T11:22:06.118Z,97930.31
2023-01-08T11:24:36.869Z,97925.81
2023-01-08T11:27:28.240Z,97919.66
2023-01-08T11:30:06.474Z,97917.22
2023-01-08T11:32:40.312Z,97920.69
2023-01-08T11:35:21.208Z,97922.53
2023-01-08T11:37:54.428Z,97920.88
2023-01-08T11:40:31.879Z,97918.03
2023-01-08T11:43:17.418Z,97916.41
2023-01-08T11:45:56.823Z,97910.22
2023-01-08T11:48:26.909Z,97903.28
2023-01-08T11:51:20.931Z,97910.22
2023-01-08T11:54:16.818Z,97903.09
2023-01-08T11:57:30.878Z,97890.59
2023-01-08T12:00:23.652Z,97890.59
2023-01-08T12:03:02.068Z,97895.94
2023-01-08T12:05:42.150Z,97890.59
2023-01-08T12:08:28.035Z,97886.91
2023-01-08T12:11:20.205Z,97891.41
2023-01-08T12:14:25.484Z,97882.63
2023-01-08T12:17:02.907Z,97881.59
2023-01-08T12:19:34.268Z,97888.97
2023-01-08T12:22:12.069Z,97887.94
2023-01-08T12:25:11.946Z,97876.50
2023-01-08T12:27:59.649Z,97886.09
2023-01-08T12:30:51.344Z,97883.25
2023-01-08T12:33:37.268Z,97876.28
2023-01-08T12:36:18.329Z,97873.59
2023-01-08T12:38:55.412Z,97876.28
2023-01-08T12:41:25.103Z,97879.53
2023-01-08T12:44:10.182Z,97875.88
2023-01-08T12:46:43.328Z,97871.56
2023-01-08T12:49:21.444Z,97872.38
2023-01-08T12:52:05.356Z,97868.91
2023-01-08T12:54:56.634Z,97869.50
2023-01-08T12:57:31.816Z,97872.16
2023-01-08T13:00:36.235Z,97881.19
2023-01-08T13:03:06.363Z,97881.81
2023-01-08T13:05:36.296Z,97874.44
2023-01-08T13:08:21.544Z,97868.06
2023-01-08T13:10:55.105Z,97873.19
2023-01-08T13:13:27.875Z,97862.31
2023-01-08T13:16:19.735Z,97868.25
2023-01-08T13:19:01.293Z,97870.50
2023-01-08T13:21:36.123Z,97865.00
2023-01-08T13:24:24.559Z,97854.13
2023-01-08T13:26:52.971Z,97859.44
2023-01-08T13:29:26.386Z,97854.94
2023-01-08T13:31:54.081Z,97868.03
2023-01-08T13:34:39.799Z,97864.13
2023-01-08T13:37:11.425Z,97863.91
2023-01-08T13:39:44.382Z,97876.78
2023-01-08T13:42:13.780Z,97868.81
2023-01-08T13:44:47.641Z,97874.53
2023-01-08T13:47:32.107Z,97882.72
2023-01-08T13:50:04.424Z,97885.19
2023-01-08T13:52:32.011Z,97881.72
2023-01-08T13:55:03.260Z,97896.66
2023-01-08T13:57:41.392Z,97893.59
2023-01-08T14:00:17.614Z,97882.31
2023-01-08T14:02:50.526Z,97881.91
2023-01-08T14:05:23.008Z,97884.56
2023-01-08T14:07:50.469Z,97879.84
2023-01-08T14:10:19.630Z,97873.50
2023-01-08T14:12:48.301Z,97871.03
2023-01-08T14:15:25.860Z,97874.53
2023-01-08T14:17:54.019Z,97872.91
2023-01-08T14:20:32.572Z,97873.72
2023-01-08T14:23:01.364Z,97878.59
2023-01-08T14:25:29.715Z,97876.16
2023-01-08T14:28:03.303Z,97876.97
2023-01-08T14:30:31.509Z,97868.78
2023-01-08T14:33:00.858Z,97872.47
2023-01-08T14:35:33.234Z,97869.19
2023-01-08T14:38:02.667Z,97869.19
2023-01-08T14:40:43.476Z,97859.59
2023-01-08T14:43:17.703Z,97860.59
2023-01-08T14:45:49.675Z,97855.28
2023-01-08T14:48:40.496Z,97853.66
2023-01-08T14:51:11.833Z,97855.28
2023-01-08T14:53:46.217Z,97845.44
2023-01-08T14:56:24.654Z,97847.91
2023-01-08T14:58:54.387Z,97856.94
2023-01-08T15:01:27.703Z,97857.34
2023-01-08T15:04:17.287Z,97847.53
2023-01-08T15:06:46.411Z,97829.91
2023-01-08T15:09:34.340Z,97813.13
2023-01-08T15:12:07.407Z,97814.75
2023-01-08T15:14:36.741Z,97807.81
2023-01-08T15:17:20.018Z,97812.31
2023-01-08T15:19:51.165Z,97813.94
2023-01-08T15:22:21.219Z,97813.13
2023-01-08T15:24:58.691Z,97809.44
2023-01-08T15:27:27.575Z,97795.50
2023-01-08T15:30:00.171Z,97797.97
2023-01-08T15:32:32.419Z,97797.16
2023-01-08T15:35:00.507Z,97794.69
2023-01-08T15:37:28.209Z,97801.06
2023-01-08T15:39:55.591Z,97799.22
2023-01-08T15:42:48.237Z,97805.34
2023-01-08T15:45:22.241Z,97797.16
2023-01-08T15:47:49.810Z,97801.88
2023-01-08T15:50:17.649Z,97795.50
2023-01-08T15:52:45.232Z,97793.91
2023-01-08T15:55:20.714Z,97804.53
2023-01-08T15:57:48.693Z,97809.06
2023-01-08T16:00:18.480Z,97798.41
2023-01-08T16:02:48.426Z,97796.75
2023-01-08T16:05:17.931Z,97800.22
2023-01-08T16:07:46.350Z,97798.41
2023-01-08T16:10:17.595Z,97795.94
2023-01-08T16:12:45.835Z,97789.81
2023-01-08T16:15:15.063Z,97798.41
2023-01-08T16:17:43.933Z,97794.91
2023-01-08T16:20:13.514Z,97788.78
2023-01-08T16:22:41.322Z,97787.97
2023-01-08T16:25:09.426Z,97788.97
2023-01-08T16:27:38.438Z,97790.84
2023-01-08T16:30:08.198Z,97781.00
2023-01-08T16:32:36.187Z,97782.03
2023-01-08T16:35:04.090Z,97784.69
2023-01-08T16:37:32.076Z,97776.72
2023-01-08T16:39:59.399Z,97777.75
2023-01-08T16:42:27.945Z,97779.56
2023-01-08T16:44:55.913Z,97773.44
2023-01-08T16:47:23.662Z,97770.59
2023-01-08T16:49:51.152Z,97766.50
2023-01-08T16:52:19.051Z,97769.78
2023-01-08T16:54:47.407Z,97761.19
2023-01-08T16:57:15.325Z,97773.44
2023-01-08T16:59:42.894Z,97784.28
2023-01-08T17:02:10.631Z,97772.63
2023-01-08T17:04:38.670Z,97777.16
2023-01-08T17:07:06.752Z,97789.84
2023-01-08T17:09:34.295Z,97778.38
2023-01-08T17:12:02.036Z,97782.47
2023-01-08T17:14:29.492Z,97786.16
2023-01-08T17:16:57.229Z,97781.63
2023-01-08T17:19:24.672Z,97780.81
2023-01-08T17:21:52.876Z,97780.81
2023-01-08T17:24:23.735Z,97771.00
2023-01-08T17:26:51.769Z,97777.16
2023-01-08T17:29:19.279Z,97761.59
2023-01-08T17:31:47.310Z,97763.25
2023-01-08T17:34:14.746Z,97775.50
2023-01-08T17:36:42.715Z,97773.88
2023-01-08T17:39:11.537Z,97771.81
2023-01-08T17:41:58.755Z,97772.84
2023-01-08T17:44:26.691Z,97774.50
2023-01-08T17:46:55.082Z,97777.16
2023-01-08T17:49:23.000Z,97766.50
2023-01-08T17:51:51.722Z,97770.19
2023-01-08T17:54:19.804Z,97768.31
2023-01-08T17:56:48.922Z,97776.53
2023-01-08T17:59:18.106Z,97771.00
2023-01-08T18:01:46.266Z,97781.88
2023-01-08T18:04:14.776Z,97776.53
2023-01-08T18:06:44.097Z,97771.00
2023-01-08T18:09:12.532Z,97775.50
2023-01-08T18:11:41.601Z,97772.03
2023-01-08T18:14:13.316Z,97763.25
2023-01-08T18:16:45.390Z,97764.25
2023-01-08T18:19:14.155Z,97761.59
2023-01-08T18:21:42.499Z,97764.25
2023-01-08T18:24:11.006Z,97770.63
2023-01-08T18:26:38.711Z,97768.75
2023-01-08T18:29:06.488Z,97768.56
2023-01-08T18:31:34.274Z,97763.25
2023-01-08T18:34:03.704Z,97760.78
2023-01-08T18:36:31.340Z,97761.59
2023-01-08T18:38:58.941Z,97750.94
2023-01-08T18:41:45.311Z,97755.47
2023-01-08T18:44:12.868Z,97753.59
2023-01-08T18:46:41.888Z,97741.13
2023-01-08T18:49:09.521Z,97735.59
2023-01-08T18:51:37.210Z,97736.00
2023-01-08T18:54:04.991Z,97735.75
2023-01-08T18:56:35.035Z,97729.41
2023-01-08T18:59:04.889Z,97716.13
2023-01-08T19:01:34.449Z,97728.81
2023-01-08T19:04:02.154Z,97725.56
2023-01-08T19:06:29.812Z,97720.22
2023-01-08T19:08:58.864Z,97718.81
2023-01-08T19:11:28.965Z,97703.66
2023-01-08T19:13:57.143Z,97708.97
2023-01-08T19:16:25.432Z,97698.53
2023-01-08T19:18:53.293Z,97694.06
2023-01-08T19:21:22.262Z,97690.56
2023-01-08T19:23:49.799Z,97687.91
2023-01-08T19:26:17.789Z,97683.81
2023-01-08T19:28:46.065Z,97692.63
2023-01-08T19:31:16.684Z,97683.00
2023-01-08T19:33:46.293Z,97678.50
2023-01-08T19:36:18.597Z,97681.97
2023-01-08T19:38:45.985Z,97676.88
2023-01-08T19:41:32.749Z,97677.69
2023-01-08T19:44:01.279Z,97672.38
2023-01-08T19:46:30.595Z,97671.56
2023-01-08T19:48:59.751Z,97672.38
2023-01-08T19:51:29.048Z,97665.44
2023-01-08T19:53:57.190Z,97661.34
2023-01-08T19:56:25.230Z,97654.19
2023-01-08T19:58:52.736Z,97649.06
2023-01-08T20:01:23.613Z,97658.06
2023-01-08T20:03:53.434Z,97650.69
2023-01-08T20:06:24.393Z,97647.44
2023-01-08T20:08:54.348Z,97641.28
2023-01-08T20:11:23.678Z,97637.22
2023-01-08T20:13:51.879Z,97643.59
2023-01-08T20:16:21.161Z,97635.59
2023-01-08T20:18:48.970Z,97643.78
2023-01-08T20:21:21.751Z,97636.03
2023-01-08T20:23:54.774Z,97633.56
2023-01-08T20:26:22.366Z,97626.44
2023-01-08T20:28:50.506Z,97622.94
2023-01-08T20:31:19.391Z,97610.88
2023-01-08T20:33:48.029Z,97610.66
2023-01-08T20:36:18.646Z,97613.53
2023-01-08T20:38:47.036Z,97609.25
2023-01-08T20:41:14.693Z,97600.47
2023-01-08T20:43:42.301Z,97593.31
2023-01-08T20:46:11.950Z,97597.81
2023-01-08T20:48:46.852Z,97598.03
2023-01-08T20:51:15.662Z,97602.53
2023-01-08T20:53:43.368Z,97591.06
2023-01-08T20:56:15.169Z,97583.31
2023-01-08T20:58:47.099Z,97581.47
2023-01-08T21:01:21.164Z,97580.84
2023-01-08T21:03:50.490Z,97580.03
2023-01-08T21:06:20.707Z,97576.34
2023-01-08T21:08:50.458Z,97578.19
2023-01-08T21:11:19.738Z,97583.50
2023-01-08T21:13:47.563Z,97583.50
2023-01-08T21:16:21.971Z,97576.78
2023-01-08T21:18:50.681Z,97565.91
2023-01-08T21:21:21.954Z,97559.19
2023-01-08T21:23:50.015Z,97561.03
2023-01-08T21:26:20.405Z,97560.03
2023-01-08T21:28:49.683Z,97563.69
2023-01-08T21:31:20.419Z,97554.69
2023-01-08T21:33:49.613Z,97553.88
2023-01-08T21:36:20.680Z,97555.91
2023-01-08T21:38:48.900Z,97539.16
2023-01-08T21:41:41.066Z,97533.84
2023-01-08T21:44:36.572Z,97542.84
2023-01-08T21:47:07.127Z,97534.03
2023-01-08T21:49:36.065Z,97533.25
2023-01-08T21:52:23.967Z,97534.03
2023-01-08T21:54:51.540Z,97526.31
2023-01-08T21:57:20.090Z,97530.59
2023-01-08T21:59:51.658Z,97514.81
2023-01-08T22:02:22.312Z,97522.81
2023-01-08T22:04:50.332Z,97527.31
2023-01-08T22:07:17.851Z,97527.31
2023-01-08T22:09:45.282Z,97521.19
2023-01-08T22:12:14.109Z,97515.03
2023-01-08T22:14:41.837Z,97516.69
2023-01-08T22:17:09.586Z,97514.44
2023-01-08T22:19:38.722Z,97512.59
2023-01-08T22:22:10.501Z,97509.13
2023-01-08T22:24:39.676Z,97505.41
2023-01-08T22:27:08.554Z,97515.03
2023-01-08T22:29:37.281Z,97510.34
2023-01-08T22:32:05.166Z,97499.72
2023-01-08T22:34:34.369Z,97505.63
2023-01-08T22:37:02.048Z,97504.00
2023-01-08T22:39:29.724Z,97515.66
2023-01-08T22:41:57.295Z,97510.34
2023-01-08T22:44:24.796Z,97513.00
2023-01-08T22:46:52.347Z,97513.00
2023-01-08T22:49:19.806Z,97504.00
2023-01-08T22:51:47.424Z,97501.31
2023-01-08T22:54:14.840Z,97502.38
2023-01-08T22:56:44.974Z,97497.06
2023-01-08T22:59:12.242Z,97491.72
2023-01-08T23:01:40.459Z,97485.56
2023-01-08T23:04:08.118Z,97490.09
2023-01-08T23:06:36.002Z,97498.88
2023-01-08T23:09:03.516Z,97485.56
2023-01-08T23:11:31.320Z,97484.78
2023-01-08T23:14:00.391Z,97478.66
2023-01-08T23:16:28.245Z,97472.50
2023-01-08T23:18:56.406Z,97464.50
2023-01-08T23:21:26.072Z,97461.84
2023-01-08T23:23:53.424Z,97456.53
2023-01-08T23:26:24.866Z,97456.53
2023-01-08T23:28:53.444Z,97449.41
2023-01-08T23:31:24.359Z,97446.91
2023-01-08T23:33:52.018Z,97445.31
2023-01-08T23:36:21.440Z,97432.00
2023-01-08T23:38:51.547Z,97428.53
2023-01-08T23:41:21.095Z,97415.25
2023-01-08T23:43:49.243Z,97415.25
2023-01-08T23:46:17.906Z,97409.09
2023-01-08T23:48:45.350Z,97397.66
2023-01-08T23:51:13.079Z,97396.84
2023-01-08T23:53:40.354Z,97396.84
2023-01-08T23:56:08.126Z,97400.31
2023-01-08T23:58:36.095Z,97395.19
